sensor_id;sensor_type;location;lat;lon;timestamp;P1;durP1;ratioP1;P2;durP2;ratioP2
10226;SDS011;15634;48.766;2.272;2023-04-30T00:00:31;19.33;;;10.38;;
10226;SDS011;15634;48.766;2.272;2023-04-30T00:02:58;17.48;;;10.30;;
10226;SDS011;15634;48.766;2.272;2023-04-30T00:05:25;17.90;;;10.80;;
10226;SDS011;15634;48.766;2.272;2023-04-30T00:07:53;16.90;;;10.43;;
10226;SDS011;15634;48.766;2.272;2023-04-30T00:10:19;19.63;;;11.25;;
10226;SDS011;15634;48.766;2.272;2023-04-30T00:12:46;16.92;;;10.80;;
10226;SDS011;15634;48.766;2.272;2023-04-30T00:15:12;19.27;;;11.35;;
10226;SDS011;15634;48.766;2.272;2023-04-30T00:17:39;18.83;;;11.38;;
10226;SDS011;15634;48.766;2.272;2023-04-30T00:20:06;19.02;;;11.00;;
10226;SDS011;15634;48.766;2.272;2023-04-30T00:22:33;18.95;;;11.13;;
10226;SDS011;15634;48.766;2.272;2023-04-30T00:25:01;18.70;;;11.55;;
10226;SDS011;15634;48.766;2.272;2023-04-30T00:27:28;18.40;;;11.10;;
10226;SDS011;15634;48.766;2.272;2023-04-30T00:29:55;20.65;;;11.32;;
10226;SDS011;15634;48.766;2.272;2023-04-30T00:32:22;22.35;;;11.38;;
10226;SDS011;15634;48.766;2.272;2023-04-30T00:34:48;17.33;;;10.38;;
10226;SDS011;15634;48.766;2.272;2023-04-30T00:37:15;18.15;;;11.43;;
10226;SDS011;15634;48.766;2.272;2023-04-30T00:39:42;19.52;;;11.55;;
10226;SDS011;15634;48.766;2.272;2023-04-30T00:42:09;18.15;;;11.38;;
10226;SDS011;15634;48.766;2.272;2023-04-30T00:44:36;17.90;;;11.60;;
10226;SDS011;15634;48.766;2.272;2023-04-30T00:47:03;17.55;;;10.98;;
10226;SDS011;15634;48.766;2.272;2023-04-30T00:49:29;18.90;;;10.90;;
10226;SDS011;15634;48.766;2.272;2023-04-30T00:51:56;18.02;;;10.93;;
10226;SDS011;15634;48.766;2.272;2023-04-30T00:54:23;17.95;;;11.20;;
10226;SDS011;15634;48.766;2.272;2023-04-30T00:56:50;19.20;;;11.20;;
10226;SDS011;15634;48.766;2.272;2023-04-30T00:59:18;21.45;;;11.20;;
10226;SDS011;15634;48.766;2.272;2023-04-30T01:01:45;18.60;;;11.20;;
10226;SDS011;15634;48.766;2.272;2023-04-30T01:04:12;18.60;;;11.48;;
10226;SDS011;15634;48.766;2.272;2023-04-30T01:06:38;19.52;;;11.15;;
10226;SDS011;15634;48.766;2.272;2023-04-30T01:09:05;20.58;;;12.57;;
10226;SDS011;15634;48.766;2.272;2023-04-30T01:11:35;19.75;;;12.00;;
10226;SDS011;15634;48.766;2.272;2023-04-30T01:14:09;20.40;;;12.20;;
10226;SDS011;15634;48.766;2.272;2023-04-30T01:16:40;18.98;;;11.63;;
10226;SDS011;15634;48.766;2.272;2023-04-30T01:19:16;18.75;;;12.15;;
10226;SDS011;15634;48.766;2.272;2023-04-30T01:21:52;21.13;;;12.32;;
10226;SDS011;15634;48.766;2.272;2023-04-30T01:24:34;23.25;;;12.93;;
10226;SDS011;15634;48.766;2.272;2023-04-30T01:27:12;18.60;;;12.52;;
10226;SDS011;15634;48.766;2.272;2023-04-30T01:29:48;20.15;;;12.65;;
10226;SDS011;15634;48.766;2.272;2023-04-30T01:32:15;20.73;;;12.55;;
10226;SDS011;15634;48.766;2.272;2023-04-30T01:34:42;23.30;;;13.40;;
10226;SDS011;15634;48.766;2.272;2023-04-30T01:37:11;25.20;;;13.45;;
10226;SDS011;15634;48.766;2.272;2023-04-30T01:39:56;21.73;;;13.35;;
10226;SDS011;15634;48.766;2.272;2023-04-30T01:42:29;24.50;;;13.65;;
10226;SDS011;15634;48.766;2.272;2023-04-30T01:45:07;27.58;;;14.48;;
10226;SDS011;15634;48.766;2.272;2023-04-30T01:47:43;22.50;;;13.70;;
10226;SDS011;15634;48.766;2.272;2023-04-30T01:50:14;24.70;;;14.00;;
10226;SDS011;15634;48.766;2.272;2023-04-30T01:52:46;28.88;;;14.20;;
10226;SDS011;15634;48.766;2.272;2023-04-30T01:55:17;23.30;;;14.23;;
10226;SDS011;15634;48.766;2.272;2023-04-30T01:57:54;24.45;;;14.10;;
10226;SDS011;15634;48.766;2.272;2023-04-30T02:00:24;23.55;;;14.40;;
10226;SDS011;15634;48.766;2.272;2023-04-30T02:02:51;23.35;;;13.48;;
10226;SDS011;15634;48.766;2.272;2023-04-30T02:05:18;21.67;;;13.50;;
10226;SDS011;15634;48.766;2.272;2023-04-30T02:07:46;23.42;;;13.82;;
10226;SDS011;15634;48.766;2.272;2023-04-30T02:10:15;19.67;;;12.13;;
10226;SDS011;15634;48.766;2.272;2023-04-30T02:12:42;22.08;;;13.05;;
10226;SDS011;15634;48.766;2.272;2023-04-30T02:15:09;21.08;;;12.43;;
10226;SDS011;15634;48.766;2.272;2023-04-30T02:17:37;23.48;;;13.45;;
10226;SDS011;15634;48.766;2.272;2023-04-30T02:20:04;20.13;;;12.23;;
10226;SDS011;15634;48.766;2.272;2023-04-30T02:22:32;21.00;;;12.35;;
10226;SDS011;15634;48.766;2.272;2023-04-30T02:24:58;21.33;;;12.65;;
10226;SDS011;15634;48.766;2.272;2023-04-30T02:27:25;19.60;;;11.88;;
10226;SDS011;15634;48.766;2.272;2023-04-30T02:29:52;21.23;;;11.93;;
10226;SDS011;15634;48.766;2.272;2023-04-30T02:32:19;23.02;;;11.65;;
10226;SDS011;15634;48.766;2.272;2023-04-30T02:34:47;21.35;;;12.55;;
10226;SDS011;15634;48.766;2.272;2023-04-30T02:37:14;18.70;;;11.70;;
10226;SDS011;15634;48.766;2.272;2023-04-30T02:39:40;19.70;;;11.63;;
10226;SDS011;15634;48.766;2.272;2023-04-30T02:42:07;18.77;;;11.15;;
10226;SDS011;15634;48.766;2.272;2023-04-30T02:44:33;17.70;;;10.95;;
10226;SDS011;15634;48.766;2.272;2023-04-30T02:47:01;20.27;;;11.68;;
10226;SDS011;15634;48.766;2.272;2023-04-30T02:49:27;19.67;;;11.40;;
10226;SDS011;15634;48.766;2.272;2023-04-30T02:51:55;18.73;;;11.45;;
10226;SDS011;15634;48.766;2.272;2023-04-30T02:54:22;17.73;;;11.32;;
10226;SDS011;15634;48.766;2.272;2023-04-30T02:56:48;17.75;;;11.30;;
10226;SDS011;15634;48.766;2.272;2023-04-30T02:59:15;18.02;;;11.05;;
10226;SDS011;15634;48.766;2.272;2023-04-30T03:01:42;19.73;;;11.00;;
10226;SDS011;15634;48.766;2.272;2023-04-30T03:04:08;17.85;;;10.68;;
10226;SDS011;15634;48.766;2.272;2023-04-30T03:06:35;15.85;;;10.02;;
10226;SDS011;15634;48.766;2.272;2023-04-30T03:09:03;17.00;;;10.52;;
10226;SDS011;15634;48.766;2.272;2023-04-30T03:11:29;17.73;;;10.27;;
10226;SDS011;15634;48.766;2.272;2023-04-30T03:13:56;17.13;;;10.90;;
10226;SDS011;15634;48.766;2.272;2023-04-30T03:16:23;17.50;;;10.95;;
10226;SDS011;15634;48.766;2.272;2023-04-30T03:18:49;17.02;;;10.75;;
10226;SDS011;15634;48.766;2.272;2023-04-30T03:21:16;15.95;;;10.38;;
10226;SDS011;15634;48.766;2.272;2023-04-30T03:23:43;18.38;;;11.45;;
10226;SDS011;15634;48.766;2.272;2023-04-30T03:26:11;17.25;;;10.52;;
10226;SDS011;15634;48.766;2.272;2023-04-30T03:28:38;18.55;;;11.73;;
10226;SDS011;15634;48.766;2.272;2023-04-30T03:31:04;15.38;;;10.25;;
10226;SDS011;15634;48.766;2.272;2023-04-30T03:33:31;17.42;;;10.65;;
10226;SDS011;15634;48.766;2.272;2023-04-30T03:35:58;16.90;;;10.60;;
10226;SDS011;15634;48.766;2.272;2023-04-30T03:38:24;16.33;;;10.35;;
10226;SDS011;15634;48.766;2.272;2023-04-30T03:40:51;16.25;;;10.48;;
10226;SDS011;15634;48.766;2.272;2023-04-30T03:43:19;16.52;;;10.35;;
10226;SDS011;15634;48.766;2.272;2023-04-30T03:45:46;17.90;;;11.10;;
10226;SDS011;15634;48.766;2.272;2023-04-30T03:48:13;16.30;;;10.50;;
10226;SDS011;15634;48.766;2.272;2023-04-30T03:50:40;15.65;;;10.63;;
10226;SDS011;15634;48.766;2.272;2023-04-30T03:53:06;15.80;;;10.20;;
10226;SDS011;15634;48.766;2.272;2023-04-30T03:55:33;16.92;;;11.05;;
10226;SDS011;15634;48.766;2.272;2023-04-30T03:58:00;18.65;;;11.13;;
10226;SDS011;15634;48.766;2.272;2023-04-30T04:00:28;16.92;;;11.02;;
10226;SDS011;15634;48.766;2.272;2023-04-30T04:02:56;18.13;;;11.07;;
10226;SDS011;15634;48.766;2.272;2023-04-30T04:05:23;21.50;;;11.23;;
10226;SDS011;15634;48.766;2.272;2023-04-30T04:07:49;18.13;;;11.80;;
10226;SDS011;15634;48.766;2.272;2023-04-30T04:10:16;18.13;;;11.13;;
10226;SDS011;15634;48.766;2.272;2023-04-30T04:12:43;20.45;;;12.10;;
10226;SDS011;15634;48.766;2.272;2023-04-30T04:15:09;18.27;;;11.43;;
10226;SDS011;15634;48.766;2.272;2023-04-30T04:17:37;20.77;;;11.85;;
10226;SDS011;15634;48.766;2.272;2023-04-30T04:20:04;21.23;;;12.63;;
10226;SDS011;15634;48.766;2.272;2023-04-30T04:22:32;19.05;;;12.73;;
10226;SDS011;15634;48.766;2.272;2023-04-30T04:24:59;18.95;;;12.38;;
10226;SDS011;15634;48.766;2.272;2023-04-30T04:27:26;18.38;;;12.32;;
10226;SDS011;15634;48.766;2.272;2023-04-30T04:29:52;20.70;;;12.75;;
10226;SDS011;15634;48.766;2.272;2023-04-30T04:32:19;22.55;;;13.45;;
10226;SDS011;15634;48.766;2.272;2023-04-30T04:34:48;21.35;;;12.93;;
10226;SDS011;15634;48.766;2.272;2023-04-30T04:37:14;21.27;;;12.60;;
10226;SDS011;15634;48.766;2.272;2023-04-30T04:39:42;18.08;;;12.27;;
10226;SDS011;15634;48.766;2.272;2023-04-30T04:42:09;21.25;;;12.27;;
10226;SDS011;15634;48.766;2.272;2023-04-30T04:44:35;19.13;;;12.57;;
10226;SDS011;15634;48.766;2.272;2023-04-30T04:47:03;23.80;;;13.20;;
10226;SDS011;15634;48.766;2.272;2023-04-30T04:49:30;22.33;;;13.45;;
10226;SDS011;15634;48.766;2.272;2023-04-30T04:51:58;20.65;;;12.65;;
10226;SDS011;15634;48.766;2.272;2023-04-30T04:54:26;24.00;;;14.82;;
10226;SDS011;15634;48.766;2.272;2023-04-30T04:56:52;21.73;;;13.82;;
10226;SDS011;15634;48.766;2.272;2023-04-30T04:59:21;23.08;;;14.30;;
10226;SDS011;15634;48.766;2.272;2023-04-30T05:01:47;23.30;;;13.98;;
10226;SDS011;15634;48.766;2.272;2023-04-30T05:04:14;24.92;;;14.63;;
10226;SDS011;15634;48.766;2.272;2023-04-30T05:06:40;25.50;;;14.57;;
10226;SDS011;15634;48.766;2.272;2023-04-30T05:09:09;25.25;;;15.18;;
10226;SDS011;15634;48.766;2.272;2023-04-30T05:11:36;27.02;;;15.52;;
10226;SDS011;15634;48.766;2.272;2023-04-30T05:14:03;25.63;;;14.85;;
10226;SDS011;15634;48.766;2.272;2023-04-30T05:16:30;26.77;;;15.55;;
10226;SDS011;15634;48.766;2.272;2023-04-30T05:18:56;25.15;;;15.23;;
10226;SDS011;15634;48.766;2.272;2023-04-30T05:21:23;24.15;;;15.07;;
10226;SDS011;15634;48.766;2.272;2023-04-30T05:23:53;23.85;;;15.10;;
10226;SDS011;15634;48.766;2.272;2023-04-30T05:26:21;25.27;;;15.38;;
10226;SDS011;15634;48.766;2.272;2023-04-30T05:28:48;24.88;;;15.15;;
10226;SDS011;15634;48.766;2.272;2023-04-30T05:31:16;27.25;;;15.85;;
10226;SDS011;15634;48.766;2.272;2023-04-30T05:33:43;28.45;;;16.20;;
10226;SDS011;15634;48.766;2.272;2023-04-30T05:36:10;28.25;;;16.65;;
10226;SDS011;15634;48.766;2.272;2023-04-30T05:38:36;27.27;;;15.98;;
10226;SDS011;15634;48.766;2.272;2023-04-30T05:41:03;30.00;;;16.30;;
10226;SDS011;15634;48.766;2.272;2023-04-30T05:43:32;26.90;;;16.85;;
10226;SDS011;15634;48.766;2.272;2023-04-30T05:45:58;28.33;;;17.08;;
10226;SDS011;15634;48.766;2.272;2023-04-30T05:48:25;26.30;;;16.85;;
10226;SDS011;15634;48.766;2.272;2023-04-30T05:50:52;25.75;;;16.65;;
10226;SDS011;15634;48.766;2.272;2023-04-30T05:53:19;31.75;;;17.42;;
10226;SDS011;15634;48.766;2.272;2023-04-30T05:55:45;28.75;;;16.50;;
10226;SDS011;15634;48.766;2.272;2023-04-30T05:58:12;27.55;;;17.00;;
10226;SDS011;15634;48.766;2.272;2023-04-30T06:00:40;27.77;;;17.20;;
10226;SDS011;15634;48.766;2.272;2023-04-30T06:03:07;30.75;;;17.15;;
10226;SDS011;15634;48.766;2.272;2023-04-30T06:05:34;28.42;;;17.52;;
10226;SDS011;15634;48.766;2.272;2023-04-30T06:08:01;28.65;;;16.65;;
10226;SDS011;15634;48.766;2.272;2023-04-30T06:10:27;29.70;;;17.83;;
10226;SDS011;15634;48.766;2.272;2023-04-30T06:12:55;29.35;;;18.23;;
10226;SDS011;15634;48.766;2.272;2023-04-30T06:15:22;27.05;;;17.10;;
10226;SDS011;15634;48.766;2.272;2023-04-30T06:17:50;29.52;;;17.60;;
10226;SDS011;15634;48.766;2.272;2023-04-30T06:20:17;28.08;;;17.63;;
10226;SDS011;15634;48.766;2.272;2023-04-30T06:22:43;27.20;;;16.92;;
10226;SDS011;15634;48.766;2.272;2023-04-30T06:25:10;30.15;;;18.48;;
10226;SDS011;15634;48.766;2.272;2023-04-30T06:27:37;31.13;;;17.42;;
10226;SDS011;15634;48.766;2.272;2023-04-30T06:30:04;31.05;;;18.05;;
10226;SDS011;15634;48.766;2.272;2023-04-30T06:32:31;30.90;;;17.98;;
10226;SDS011;15634;48.766;2.272;2023-04-30T06:35:00;28.70;;;17.42;;
10226;SDS011;15634;48.766;2.272;2023-04-30T06:37:26;26.83;;;17.15;;
10226;SDS011;15634;48.766;2.272;2023-04-30T06:39:53;28.48;;;17.35;;
10226;SDS011;15634;48.766;2.272;2023-04-30T06:42:20;27.77;;;17.52;;
10226;SDS011;15634;48.766;2.272;2023-04-30T06:44:47;28.70;;;17.25;;
10226;SDS011;15634;48.766;2.272;2023-04-30T06:47:16;29.52;;;17.13;;
10226;SDS011;15634;48.766;2.272;2023-04-30T06:49:43;26.25;;;16.08;;
10226;SDS011;15634;48.766;2.272;2023-04-30T06:52:11;26.95;;;16.65;;
10226;SDS011;15634;48.766;2.272;2023-04-30T06:54:38;30.70;;;17.92;;
10226;SDS011;15634;48.766;2.272;2023-04-30T06:57:04;28.75;;;17.40;;
10226;SDS011;15634;48.766;2.272;2023-04-30T06:59:32;27.98;;;17.35;;
10226;SDS011;15634;48.766;2.272;2023-04-30T07:01:58;28.63;;;16.88;;
10226;SDS011;15634;48.766;2.272;2023-04-30T07:04:25;29.30;;;17.77;;
10226;SDS011;15634;48.766;2.272;2023-04-30T07:06:51;28.63;;;17.10;;
10226;SDS011;15634;48.766;2.272;2023-04-30T07:09:19;28.15;;;17.92;;
10226;SDS011;15634;48.766;2.272;2023-04-30T07:11:46;28.60;;;16.92;;
10226;SDS011;15634;48.766;2.272;2023-04-30T07:14:13;28.08;;;16.90;;
10226;SDS011;15634;48.766;2.272;2023-04-30T07:16:39;29.65;;;17.85;;
10226;SDS011;15634;48.766;2.272;2023-04-30T07:19:06;29.33;;;18.00;;
10226;SDS011;15634;48.766;2.272;2023-04-30T07:21:32;33.00;;;18.08;;
10226;SDS011;15634;48.766;2.272;2023-04-30T07:23:59;27.70;;;18.00;;
10226;SDS011;15634;48.766;2.272;2023-04-30T07:26:27;29.52;;;19.23;;
10226;SDS011;15634;48.766;2.272;2023-04-30T07:28:54;28.27;;;17.55;;
10226;SDS011;15634;48.766;2.272;2023-04-30T07:31:21;25.40;;;17.13;;
10226;SDS011;15634;48.766;2.272;2023-04-30T07:33:47;28.23;;;17.45;;
10226;SDS011;15634;48.766;2.272;2023-04-30T07:36:14;28.10;;;17.27;;
10226;SDS011;15634;48.766;2.272;2023-04-30T07:38:41;28.50;;;17.98;;
10226;SDS011;15634;48.766;2.272;2023-04-30T07:41:09;34.45;;;21.13;;
10226;SDS011;15634;48.766;2.272;2023-04-30T07:43:37;29.13;;;17.88;;
10226;SDS011;15634;48.766;2.272;2023-04-30T07:46:03;29.40;;;17.90;;
10226;SDS011;15634;48.766;2.272;2023-04-30T07:48:30;29.85;;;19.08;;
10226;SDS011;15634;48.766;2.272;2023-04-30T07:50:57;30.33;;;18.00;;
10226;SDS011;15634;48.766;2.272;2023-04-30T07:53:23;30.30;;;19.88;;
10226;SDS011;15634;48.766;2.272;2023-04-30T07:55:50;31.40;;;18.60;;
10226;SDS011;15634;48.766;2.272;2023-04-30T07:58:16;29.73;;;18.45;;
10226;SDS011;15634;48.766;2.272;2023-04-30T08:00:44;33.13;;;18.92;;
10226;SDS011;15634;48.766;2.272;2023-04-30T08:03:11;32.00;;;18.50;;
10226;SDS011;15634;48.766;2.272;2023-04-30T08:05:38;28.45;;;18.52;;
10226;SDS011;15634;48.766;2.272;2023-04-30T08:08:05;36.83;;;22.08;;
10226;SDS011;15634;48.766;2.272;2023-04-30T08:10:32;35.00;;;20.88;;
10226;SDS011;15634;48.766;2.272;2023-04-30T08:12:59;46.15;;;25.23;;
10226;SDS011;15634;48.766;2.272;2023-04-30T08:15:25;41.15;;;23.40;;
10226;SDS011;15634;48.766;2.272;2023-04-30T08:17:53;70.22;;;35.08;;
10226;SDS011;15634;48.766;2.272;2023-04-30T08:20:20;36.47;;;21.70;;
10226;SDS011;15634;48.766;2.272;2023-04-30T08:22:47;32.85;;;19.15;;
10226;SDS011;15634;48.766;2.272;2023-04-30T08:25:14;41.47;;;22.63;;
10226;SDS011;15634;48.766;2.272;2023-04-30T08:27:40;40.97;;;22.73;;
10226;SDS011;15634;48.766;2.272;2023-04-30T08:30:07;34.83;;;20.48;;
10226;SDS011;15634;48.766;2.272;2023-04-30T08:32:34;30.20;;;17.48;;
10226;SDS011;15634;48.766;2.272;2023-04-30T08:35:02;30.70;;;17.48;;
10226;SDS011;15634;48.766;2.272;2023-04-30T08:37:29;31.45;;;18.65;;
10226;SDS011;15634;48.766;2.272;2023-04-30T08:39:56;27.67;;;17.77;;
10226;SDS011;15634;48.766;2.272;2023-04-30T08:42:23;28.02;;;17.55;;
10226;SDS011;15634;48.766;2.272;2023-04-30T08:44:51;26.00;;;16.73;;
10226;SDS011;15634;48.766;2.272;2023-04-30T08:47:17;29.00;;;17.08;;
10226;SDS011;15634;48.766;2.272;2023-04-30T08:49:46;27.77;;;17.23;;
10226;SDS011;15634;48.766;2.272;2023-04-30T08:52:14;30.88;;;16.63;;
10226;SDS011;15634;48.766;2.272;2023-04-30T08:54:40;26.85;;;17.15;;
10226;SDS011;15634;48.766;2.272;2023-04-30T08:57:07;26.55;;;15.32;;
10226;SDS011;15634;48.766;2.272;2023-04-30T08:59:34;25.25;;;15.52;;
10226;SDS011;15634;48.766;2.272;2023-04-30T09:02:02;24.85;;;15.25;;
10226;SDS011;15634;48.766;2.272;2023-04-30T09:04:28;25.17;;;15.43;;
10226;SDS011;15634;48.766;2.272;2023-04-30T09:06:55;26.85;;;14.68;;
10226;SDS011;15634;48.766;2.272;2023-04-30T09:09:28;22.27;;;14.65;;
10226;SDS011;15634;48.766;2.272;2023-04-30T09:12:09;23.77;;;15.00;;
10226;SDS011;15634;48.766;2.272;2023-04-30T09:14:37;22.63;;;14.80;;
10226;SDS011;15634;48.766;2.272;2023-04-30T09:17:05;22.40;;;14.20;;
10226;SDS011;15634;48.766;2.272;2023-04-30T09:19:33;24.55;;;14.75;;
10226;SDS011;15634;48.766;2.272;2023-04-30T09:24:46;26.67;;;15.15;;
10226;SDS011;15634;48.766;2.272;2023-04-30T09:27:15;21.85;;;14.02;;
10226;SDS011;15634;48.766;2.272;2023-04-30T09:29:42;21.27;;;13.73;;
10226;SDS011;15634;48.766;2.272;2023-04-30T09:32:10;18.60;;;12.05;;
10226;SDS011;15634;48.766;2.272;2023-04-30T09:34:37;18.77;;;12.10;;
10226;SDS011;15634;48.766;2.272;2023-04-30T09:37:03;22.60;;;12.55;;
10226;SDS011;15634;48.766;2.272;2023-04-30T09:39:31;19.40;;;12.40;;
10226;SDS011;15634;48.766;2.272;2023-04-30T09:42:07;18.45;;;12.32;;
10226;SDS011;15634;48.766;2.272;2023-04-30T09:44:35;21.23;;;12.88;;
10226;SDS011;15634;48.766;2.272;2023-04-30T09:47:04;20.38;;;12.88;;
10226;SDS011;15634;48.766;2.272;2023-04-30T09:49:36;20.25;;;12.63;;
10226;SDS011;15634;48.766;2.272;2023-04-30T09:52:03;20.67;;;14.27;;
10226;SDS011;15634;48.766;2.272;2023-04-30T09:54:31;18.63;;;12.40;;
10226;SDS011;15634;48.766;2.272;2023-04-30T09:56:59;18.58;;;12.73;;
10226;SDS011;15634;48.766;2.272;2023-04-30T09:59:29;16.17;;;11.75;;
10226;SDS011;15634;48.766;2.272;2023-04-30T10:01:58;18.05;;;12.10;;
10226;SDS011;15634;48.766;2.272;2023-04-30T10:04:27;17.63;;;11.23;;
10226;SDS011;15634;48.766;2.272;2023-04-30T10:06:56;19.15;;;11.57;;
10226;SDS011;15634;48.766;2.272;2023-04-30T10:09:24;21.00;;;12.43;;
10226;SDS011;15634;48.766;2.272;2023-04-30T10:11:52;16.15;;;11.52;;
10226;SDS011;15634;48.766;2.272;2023-04-30T10:14:19;15.77;;;10.48;;
10226;SDS011;15634;48.766;2.272;2023-04-30T10:16:50;18.45;;;11.57;;
10226;SDS011;15634;48.766;2.272;2023-04-30T10:19:18;20.88;;;12.48;;
10226;SDS011;15634;48.766;2.272;2023-04-30T10:21:45;14.43;;;9.85;;
10226;SDS011;15634;48.766;2.272;2023-04-30T10:24:12;13.85;;;9.68;;
10226;SDS011;15634;48.766;2.272;2023-04-30T10:26:40;15.70;;;9.68;;
10226;SDS011;15634;48.766;2.272;2023-04-30T10:29:07;13.68;;;9.32;;
10226;SDS011;15634;48.766;2.272;2023-04-30T10:31:36;15.07;;;9.40;;
10226;SDS011;15634;48.766;2.272;2023-04-30T10:34:12;14.63;;;9.45;;
10226;SDS011;15634;48.766;2.272;2023-04-30T10:36:44;13.60;;;9.32;;
10226;SDS011;15634;48.766;2.272;2023-04-30T10:39:13;13.35;;;8.55;;
10226;SDS011;15634;48.766;2.272;2023-04-30T10:41:41;11.10;;;7.85;;
10226;SDS011;15634;48.766;2.272;2023-04-30T10:44:10;11.63;;;7.75;;
10226;SDS011;15634;48.766;2.272;2023-04-30T10:46:37;11.80;;;7.60;;
10226;SDS011;15634;48.766;2.272;2023-04-30T10:49:07;9.70;;;6.82;;
10226;SDS011;15634;48.766;2.272;2023-04-30T10:51:44;11.02;;;7.40;;
10226;SDS011;15634;48.766;2.272;2023-04-30T10:54:12;9.63;;;6.38;;
10226;SDS011;15634;48.766;2.272;2023-04-30T10:56:41;10.82;;;6.85;;
10226;SDS011;15634;48.766;2.272;2023-04-30T10:59:11;12.35;;;7.30;;
10226;SDS011;15634;48.766;2.272;2023-04-30T11:04:24;10.35;;;6.50;;
10226;SDS011;15634;48.766;2.272;2023-04-30T11:06:54;9.65;;;6.78;;
10226;SDS011;15634;48.766;2.272;2023-04-30T11:09:38;8.95;;;6.03;;
10226;SDS011;15634;48.766;2.272;2023-04-30T11:12:10;9.40;;;6.45;;
10226;SDS011;15634;48.766;2.272;2023-04-30T11:14:39;10.57;;;6.23;;
10226;SDS011;15634;48.766;2.272;2023-04-30T11:17:08;9.07;;;6.50;;
10226;SDS011;15634;48.766;2.272;2023-04-30T11:19:42;9.65;;;6.43;;
10226;SDS011;15634;48.766;2.272;2023-04-30T11:22:16;8.98;;;6.35;;
10226;SDS011;15634;48.766;2.272;2023-04-30T11:24:50;9.35;;;6.53;;
10226;SDS011;15634;48.766;2.272;2023-04-30T11:27:20;9.40;;;6.25;;
10226;SDS011;15634;48.766;2.272;2023-04-30T11:29:48;8.50;;;6.57;;
10226;SDS011;15634;48.766;2.272;2023-04-30T11:32:16;8.88;;;6.25;;
10226;SDS011;15634;48.766;2.272;2023-04-30T11:34:44;9.32;;;6.50;;
10226;SDS011;15634;48.766;2.272;2023-04-30T11:37:11;8.48;;;5.90;;
10226;SDS011;15634;48.766;2.272;2023-04-30T11:39:38;9.00;;;6.35;;
10226;SDS011;15634;48.766;2.272;2023-04-30T11:42:05;9.00;;;6.25;;
10226;SDS011;15634;48.766;2.272;2023-04-30T11:44:32;8.38;;;6.13;;
10226;SDS011;15634;48.766;2.272;2023-04-30T11:46:58;8.30;;;6.18;;
10226;SDS011;15634;48.766;2.272;2023-04-30T11:49:25;9.02;;;5.82;;
10226;SDS011;15634;48.766;2.272;2023-04-30T11:51:53;16.50;;;9.77;;
10226;SDS011;15634;48.766;2.272;2023-04-30T11:54:20;9.43;;;6.75;;
10226;SDS011;15634;48.766;2.272;2023-04-30T11:56:47;14.70;;;8.40;;
10226;SDS011;15634;48.766;2.272;2023-04-30T11:59:14;21.52;;;11.75;;
10226;SDS011;15634;48.766;2.272;2023-04-30T12:01:41;16.90;;;10.13;;
10226;SDS011;15634;48.766;2.272;2023-04-30T12:04:08;10.70;;;7.22;;
10226;SDS011;15634;48.766;2.272;2023-04-30T12:06:35;10.55;;;7.10;;
10226;SDS011;15634;48.766;2.272;2023-04-30T12:09:03;14.52;;;8.68;;
10226;SDS011;15634;48.766;2.272;2023-04-30T12:11:32;11.65;;;7.88;;
10226;SDS011;15634;48.766;2.272;2023-04-30T12:14:00;10.57;;;6.53;;
10226;SDS011;15634;48.766;2.272;2023-04-30T12:16:37;10.45;;;7.00;;
10226;SDS011;15634;48.766;2.272;2023-04-30T12:19:04;8.82;;;6.35;;
10226;SDS011;15634;48.766;2.272;2023-04-30T12:21:31;10.25;;;6.97;;
10226;SDS011;15634;48.766;2.272;2023-04-30T12:23:58;9.25;;;6.97;;
10226;SDS011;15634;48.766;2.272;2023-04-30T12:26:34;8.65;;;6.15;;
10226;SDS011;15634;48.766;2.272;2023-04-30T12:29:02;9.05;;;6.70;;
10226;SDS011;15634;48.766;2.272;2023-04-30T12:31:30;8.77;;;6.03;;
10226;SDS011;15634;48.766;2.272;2023-04-30T12:33:57;9.48;;;6.20;;
10226;SDS011;15634;48.766;2.272;2023-04-30T12:36:30;8.57;;;6.20;;
10226;SDS011;15634;48.766;2.272;2023-04-30T12:39:01;9.93;;;6.25;;
10226;SDS011;15634;48.766;2.272;2023-04-30T12:41:29;8.32;;;6.43;;
10226;SDS011;15634;48.766;2.272;2023-04-30T12:46:44;9.15;;;6.22;;
10226;SDS011;15634;48.766;2.272;2023-04-30T12:49:12;8.38;;;6.20;;
10226;SDS011;15634;48.766;2.272;2023-04-30T12:51:48;9.68;;;6.97;;
10226;SDS011;15634;48.766;2.272;2023-04-30T12:54:14;9.30;;;7.05;;
10226;SDS011;15634;48.766;2.272;2023-04-30T12:56:55;9.77;;;6.72;;
10226;SDS011;15634;48.766;2.272;2023-04-30T12:59:24;10.93;;;6.95;;
10226;SDS011;15634;48.766;2.272;2023-04-30T13:01:51;10.20;;;7.13;;
10226;SDS011;15634;48.766;2.272;2023-04-30T13:04:18;8.23;;;6.40;;
10226;SDS011;15634;48.766;2.272;2023-04-30T13:06:44;9.10;;;6.60;;
10226;SDS011;15634;48.766;2.272;2023-04-30T13:09:11;9.20;;;6.45;;
10226;SDS011;15634;48.766;2.272;2023-04-30T13:11:38;11.07;;;6.82;;
10226;SDS011;15634;48.766;2.272;2023-04-30T13:14:04;9.07;;;6.95;;
10226;SDS011;15634;48.766;2.272;2023-04-30T13:16:32;9.27;;;6.68;;
10226;SDS011;15634;48.766;2.272;2023-04-30T13:18:59;9.63;;;5.88;;
10226;SDS011;15634;48.766;2.272;2023-04-30T13:21:25;7.63;;;5.80;;
10226;SDS011;15634;48.766;2.272;2023-04-30T13:23:52;11.20;;;6.50;;
10226;SDS011;15634;48.766;2.272;2023-04-30T13:26:18;9.00;;;6.30;;
10226;SDS011;15634;48.766;2.272;2023-04-30T13:28:46;10.13;;;5.95;;
10226;SDS011;15634;48.766;2.272;2023-04-30T13:31:13;9.07;;;6.10;;
10226;SDS011;15634;48.766;2.272;2023-04-30T13:33:41;7.95;;;6.00;;
10226;SDS011;15634;48.766;2.272;2023-04-30T13:36:07;11.07;;;6.55;;
10226;SDS011;15634;48.766;2.272;2023-04-30T13:38:34;8.55;;;6.03;;
10226;SDS011;15634;48.766;2.272;2023-04-30T13:41:01;28.05;;;18.23;;
10226;SDS011;15634;48.766;2.272;2023-04-30T13:43:27;22.65;;;14.45;;
10226;SDS011;15634;48.766;2.272;2023-04-30T13:45:54;13.20;;;8.48;;
10226;SDS011;15634;48.766;2.272;2023-04-30T13:48:20;10.52;;;5.78;;
10226;SDS011;15634;48.766;2.272;2023-04-30T13:50:49;11.57;;;6.93;;
10226;SDS011;15634;48.766;2.272;2023-04-30T13:53:15;11.98;;;7.70;;
10226;SDS011;15634;48.766;2.272;2023-04-30T13:55:42;13.35;;;7.38;;
10226;SDS011;15634;48.766;2.272;2023-04-30T13:58:09;8.63;;;6.50;;
10226;SDS011;15634;48.766;2.272;2023-04-30T14:00:35;9.18;;;7.00;;
10226;SDS011;15634;48.766;2.272;2023-04-30T14:03:02;9.40;;;6.55;;
10226;SDS011;15634;48.766;2.272;2023-04-30T14:05:28;7.90;;;5.68;;
10226;SDS011;15634;48.766;2.272;2023-04-30T14:07:56;15.48;;;9.38;;
10226;SDS011;15634;48.766;2.272;2023-04-30T14:10:23;9.20;;;6.30;;
10226;SDS011;15634;48.766;2.272;2023-04-30T14:12:49;14.70;;;9.35;;
10226;SDS011;15634;48.766;2.272;2023-04-30T14:15:16;9.00;;;6.60;;
10226;SDS011;15634;48.766;2.272;2023-04-30T14:17:42;10.95;;;6.80;;
10226;SDS011;15634;48.766;2.272;2023-04-30T14:20:10;8.90;;;6.40;;
10226;SDS011;15634;48.766;2.272;2023-04-30T14:22:38;9.32;;;6.45;;
10226;SDS011;15634;48.766;2.272;2023-04-30T14:25:07;9.15;;;6.20;;
10226;SDS011;15634;48.766;2.272;2023-04-30T14:27:34;9.70;;;6.80;;
10226;SDS011;15634;48.766;2.272;2023-04-30T14:30:01;9.55;;;6.10;;
10226;SDS011;15634;48.766;2.272;2023-04-30T14:32:27;9.82;;;6.63;;
10226;SDS011;15634;48.766;2.272;2023-04-30T14:34:54;8.57;;;6.32;;
10226;SDS011;15634;48.766;2.272;2023-04-30T14:37:21;9.57;;;6.80;;
10226;SDS011;15634;48.766;2.272;2023-04-30T14:39:47;9.93;;;7.20;;